createdAt,value
2022-09-10T00:00:03.820Z,0.00
2022-09-10T00:01:03.813Z,0.00
2022-09-10T00:02:03.830Z,0.00
2022-09-10T00:03:03.835Z,0.00
2022-09-10T00:04:03.780Z,0.00
2022-09-10T00:05:03.753Z,0.00
2022-09-10T00:06:03.742Z,0.00
2022-09-10T00:07:03.745Z,0.00
2022-09-10T00:08:03.723Z,0.00
2022-09-10T00:09:03.823Z,0.00
2022-09-10T00:10:03.693Z,0.00
2022-09-10T00:11:03.687Z,0.00
2022-09-10T00:12:03.675Z,0.00
2022-09-10T00:13:03.656Z,0.00
2022-09-10T00:14:03.648Z,0.00
2022-09-10T00:15:03.658Z,0.00
2022-09-10T00:16:03.688Z,0.00
2022-09-10T00:17:03.606Z,0.00
2022-09-10T00:18:03.617Z,0.00
2022-09-10T00:19:03.577Z,0.00
2022-09-10T00:20:03.568Z,0.00
2022-09-10T00:21:03.676Z,0.00
2022-09-10T00:22:03.547Z,0.00
2022-09-10T00:23:03.528Z,0.00
2022-09-10T00:24:03.518Z,0.00
2022-09-10T00:25:08.098Z,0.00
2022-09-10T00:26:03.498Z,0.00
2022-09-10T00:27:03.609Z,0.00
2022-09-10T00:28:03.470Z,0.00
2022-09-10T00:29:03.459Z,0.00
2022-09-10T00:30:03.459Z,0.00
2022-09-10T00:31:03.480Z,0.00
2022-09-10T00:32:03.423Z,0.00
2022-09-10T00:33:03.422Z,0.00
2022-09-10T00:34:03.402Z,0.00
2022-09-10T00:35:03.383Z,0.00
2022-09-10T00:36:03.384Z,0.00
2022-09-10T00:37:03.353Z,0.00
2022-09-10T00:38:03.346Z,0.00
2022-09-10T00:39:03.448Z,0.00
2022-09-10T00:40:03.422Z,0.00
2022-09-10T00:41:03.304Z,0.00
2022-09-10T00:42:03.295Z,0.00
2022-09-10T00:43:03.285Z,0.00
2022-09-10T00:44:03.284Z,0.00
2022-09-10T00:45:03.286Z,0.00
2022-09-10T00:46:03.299Z,0.00
2022-09-10T00:47:03.247Z,0.00
2022-09-10T00:48:03.224Z,0.00
2022-09-10T00:49:03.206Z,0.00
2022-09-10T00:50:03.201Z,0.00
2022-09-10T00:51:03.288Z,0.00
2022-09-10T00:52:03.168Z,0.00
2022-09-10T00:53:03.157Z,0.00
2022-09-10T00:54:03.149Z,0.00
2022-09-10T00:55:03.157Z,0.00
2022-09-10T00:56:03.118Z,0.00
2022-09-10T00:57:03.129Z,0.00
2022-09-10T00:58:03.111Z,0.00
2022-09-10T00:59:03.081Z,0.00
2022-09-10T01:00:03.071Z,0.00
2022-09-10T01:01:03.111Z,0.00
2022-09-10T01:02:03.106Z,0.00
2022-09-10T01:03:03.146Z,0.00
2022-09-10T01:04:03.012Z,0.00
2022-09-10T01:05:03.002Z,0.00
2022-09-10T01:06:02.993Z,0.00
2022-09-10T01:07:02.974Z,0.00
2022-09-10T01:08:02.964Z,0.00
2022-09-10T01:09:02.993Z,0.00
2022-09-10T01:10:02.943Z,0.00
2022-09-10T01:11:02.924Z,0.00
2022-09-10T01:12:04.362Z,0.00
2022-09-10T01:13:02.902Z,0.00
2022-09-10T01:14:02.895Z,0.00
2022-09-10T01:15:02.915Z,0.00
2022-09-10T01:16:02.906Z,0.00
2022-09-10T01:17:02.857Z,0.00
2022-09-10T01:18:02.846Z,0.00
2022-09-10T01:19:02.827Z,0.00
2022-09-10T01:20:02.855Z,0.00
2022-09-10T01:21:02.827Z,0.00
2022-09-10T01:22:02.788Z,0.00
2022-09-10T01:23:02.778Z,0.00
2022-09-10T01:24:02.779Z,0.00
2022-09-10T01:25:02.762Z,0.00
2022-09-10T01:26:02.742Z,0.00
2022-09-10T01:27:02.853Z,0.00
2022-09-10T01:28:02.717Z,0.00
2022-09-10T01:29:02.702Z,0.00
2022-09-10T01:30:02.692Z,0.00
2022-09-10T01:31:02.674Z,0.00
2022-09-10T01:32:02.671Z,0.00
2022-09-10T01:33:02.680Z,0.00
2022-09-10T01:34:02.638Z,0.00
2022-09-10T01:35:02.627Z,0.00
2022-09-10T01:36:02.613Z,0.00
2022-09-10T01:37:02.609Z,0.00
2022-09-10T01:38:02.585Z,0.00
2022-09-10T01:39:02.618Z,0.00
2022-09-10T01:40:02.589Z,0.00
2022-09-10T01:41:02.545Z,0.00
2022-09-10T01:42:02.535Z,0.00
2022-09-10T01:43:02.526Z,0.00
2022-09-10T01:44:02.515Z,0.00
2022-09-10T01:45:02.532Z,0.00
2022-09-10T01:46:02.558Z,0.00
2022-09-10T01:47:02.473Z,0.00
2022-09-10T01:48:02.457Z,0.00
2022-09-10T01:49:02.438Z,0.00
2022-09-10T01:50:02.440Z,0.00
2022-09-10T01:51:02.439Z,0.00
2022-09-10T01:52:02.408Z,0.00
2022-09-10T01:53:02.388Z,0.00
2022-09-10T01:54:02.402Z,0.00
2022-09-10T01:55:02.364Z,0.00
2022-09-10T01:56:02.369Z,0.00
2022-09-10T01:57:02.370Z,0.00
2022-09-10T01:58:02.330Z,0.00
2022-09-10T01:59:02.311Z,0.00
2022-09-10T02:00:02.313Z,0.00
2022-09-10T02:01:02.317Z,0.00
2022-09-10T02:02:02.303Z,0.00
2022-09-10T02:03:02.292Z,0.00
2022-09-10T02:04:02.253Z,0.00
2022-09-10T02:05:02.233Z,0.00
2022-09-10T02:06:02.232Z,0.00
2022-09-10T02:07:02.214Z,0.00
2022-09-10T02:08:02.206Z,0.00
2022-09-10T02:09:02.215Z,0.00
2022-09-10T02:10:02.175Z,0.00
2022-09-10T02:11:02.165Z,0.00
2022-09-10T02:12:02.165Z,0.00
2022-09-10T02:13:02.138Z,0.00
2022-09-10T02:14:02.127Z,0.00
2022-09-10T02:15:02.237Z,0.00
2022-09-10T02:16:02.136Z,0.00
2022-09-10T02:17:02.087Z,0.00
2022-09-10T02:18:02.077Z,0.00
2022-09-10T02:19:02.059Z,0.00
2022-09-10T02:20:02.049Z,0.00
2022-09-10T02:21:02.153Z,0.00
2022-09-10T02:22:02.028Z,0.00
2022-09-10T02:23:02.012Z,0.00
2022-09-10T02:24:02.000Z,0.00
2022-09-10T02:25:01.989Z,0.00
2022-09-10T02:26:01.982Z,0.00
2022-09-10T02:27:02.102Z,0.00
2022-09-10T02:28:01.951Z,0.00
2022-09-10T02:29:01.950Z,0.00
2022-09-10T02:30:01.939Z,0.00
2022-09-10T02:31:01.904Z,0.00
2022-09-10T02:32:01.902Z,0.00
2022-09-10T02:33:01.905Z,0.00
2022-09-10T02:34:01.873Z,0.00
2022-09-10T02:35:01.853Z,0.00
2022-09-10T02:36:01.845Z,0.00
2022-09-10T02:37:01.835Z,0.00
2022-09-10T02:38:01.825Z,0.00
2022-09-10T02:39:01.835Z,0.00
2022-09-10T02:40:01.861Z,0.00
2022-09-10T02:41:01.778Z,0.00
2022-09-10T02:42:01.766Z,0.00
2022-09-10T02:43:01.757Z,0.00
2022-09-10T02:44:01.748Z,0.00
2022-09-10T02:45:01.759Z,0.00
2022-09-10T02:46:01.766Z,0.00
2022-09-10T02:47:01.716Z,0.00
2022-09-10T02:48:01.699Z,0.00
2022-09-10T02:49:01.689Z,0.00
2022-09-10T02:50:01.669Z,0.00
2022-09-10T02:51:01.779Z,0.00
2022-09-10T02:52:01.651Z,0.00
2022-09-10T02:53:01.639Z,0.00
2022-09-10T02:54:01.620Z,0.00
2022-09-10T02:55:01.602Z,0.00
2022-09-10T02:56:01.610Z,0.00
2022-09-10T02:57:01.702Z,0.00
2022-09-10T02:58:01.580Z,0.00
2022-09-10T02:59:01.553Z,0.00
2022-09-10T03:00:01.542Z,0.00
2022-09-10T03:01:01.593Z,0.00
2022-09-10T03:02:01.567Z,0.00
2022-09-10T03:03:03.180Z,0.00
2022-09-10T03:04:01.505Z,0.00
2022-09-10T03:05:01.530Z,0.00
2022-09-10T03:06:01.464Z,0.00
2022-09-10T03:07:01.457Z,0.00
2022-09-10T03:08:01.470Z,0.00
2022-09-10T03:09:01.462Z,0.00
2022-09-10T03:10:01.416Z,0.00
2022-09-10T03:11:01.405Z,0.00
2022-09-10T03:12:01.396Z,0.00
2022-09-10T03:13:01.387Z,0.00
2022-09-10T03:14:01.366Z,0.00
2022-09-10T03:15:01.380Z,0.00
2022-09-10T03:16:01.358Z,0.00
2022-09-10T03:17:01.327Z,0.00
2022-09-10T03:18:01.321Z,0.00
2022-09-10T03:19:01.309Z,0.00
2022-09-10T03:20:01.296Z,0.00
2022-09-10T03:21:01.311Z,0.00
2022-09-10T03:22:01.260Z,0.00
2022-09-10T03:23:01.250Z,0.00
2022-09-10T03:24:01.253Z,0.00
2022-09-10T03:25:01.231Z,0.00
2022-09-10T03:26:01.212Z,0.00
2022-09-10T03:27:01.241Z,0.00
2022-09-10T03:28:01.182Z,0.00
2022-09-10T03:29:01.176Z,0.00
2022-09-10T03:30:01.162Z,0.00
2022-09-10T03:31:01.166Z,0.00
2022-09-10T03:32:01.158Z,0.00
2022-09-10T03:33:01.153Z,0.00
2022-09-10T03:34:01.114Z,0.00
2022-09-10T03:35:01.105Z,0.00
2022-09-10T03:36:01.098Z,0.00
2022-09-10T03:37:01.075Z,0.00
2022-09-10T03:38:01.065Z,0.00
2022-09-10T03:39:01.091Z,0.00
2022-09-10T03:40:01.218Z,0.00
2022-09-10T03:41:01.027Z,0.00
2022-09-10T03:42:01.016Z,0.00
2022-09-10T03:43:01.008Z,0.00
2022-09-10T03:44:00.991Z,0.00
2022-09-10T03:45:00.998Z,0.00
2022-09-10T03:46:00.975Z,0.00
2022-09-10T03:47:00.949Z,0.00
2022-09-10T03:48:00.939Z,0.00
2022-09-10T03:49:00.927Z,0.00
2022-09-10T03:50:00.909Z,0.00
2022-09-10T03:51:01.021Z,0.00
2022-09-10T03:52:00.881Z,0.00
2022-09-10T03:53:00.873Z,0.00
2022-09-10T03:54:00.881Z,0.00
2022-09-10T03:55:00.851Z,0.00
2022-09-10T03:56:00.834Z,0.00
2022-09-10T03:57:00.852Z,0.00
2022-09-10T03:58:00.822Z,0.00
2022-09-10T03:59:00.801Z,0.00
2022-09-10T04:00:00.783Z,0.00
2022-09-10T04:01:00.849Z,0.00
2022-09-10T04:02:00.781Z,0.00
2022-09-10T04:03:00.873Z,0.00
2022-09-10T04:04:00.735Z,0.00
2022-09-10T04:05:00.727Z,0.00
2022-09-10T04:06:00.715Z,0.00
2022-09-10T04:07:00.696Z,0.00
2022-09-10T04:08:00.685Z,0.00
2022-09-10T04:09:00.716Z,0.00
2022-09-10T04:10:00.670Z,0.00
2022-09-10T04:11:00.666Z,0.00
2022-09-10T04:12:00.629Z,0.00
2022-09-10T04:13:00.627Z,0.00
2022-09-10T04:14:00.609Z,0.00
2022-09-10T04:15:00.709Z,0.00
2022-09-10T04:16:00.590Z,0.00
2022-09-10T04:17:00.570Z,0.00
2022-09-10T04:18:00.563Z,0.00
2022-09-10T04:19:00.557Z,0.00
2022-09-10T04:20:00.530Z,0.00
2022-09-10T04:21:00.651Z,0.00
2022-09-10T04:22:00.511Z,0.00
2022-09-10T04:23:00.501Z,0.00
2022-09-10T04:24:00.484Z,0.00
2022-09-10T04:25:00.472Z,1.00
2022-09-10T04:26:00.454Z,1.00
2022-09-10T04:27:00.474Z,1.00
2022-09-10T04:28:00.433Z,0.00
2022-09-10T04:29:00.423Z,2.00
2022-09-10T04:30:00.415Z,2.00
2022-09-10T04:31:00.393Z,4.00
2022-09-10T04:32:00.451Z,0.00
2022-09-10T04:33:00.394Z,4.00
2022-09-10T04:34:00.355Z,7.00
2022-09-10T04:35:00.355Z,2.00
2022-09-10T04:36:00.333Z,10.00
2022-09-10T04:37:00.316Z,9.00
2022-09-10T04:38:00.317Z,15.00
2022-09-10T04:39:00.407Z,9.00
2022-09-10T04:40:00.326Z,11.00
2022-09-10T04:41:00.269Z,20.00
2022-09-10T04:42:00.256Z,22.00
2022-09-10T04:43:00.249Z,14.00
2022-09-10T04:44:00.229Z,31.00
2022-09-10T04:45:00.358Z,31.00
2022-09-10T04:46:00.244Z,29.00
2022-09-10T04:47:00.201Z,29.00
2022-09-10T04:48:03.611Z,30.00
2022-09-10T04:49:01.169Z,43.00
2022-09-10T04:50:00.163Z,46.00
2022-09-10T04:51:15.807Z,66.00
2022-09-10T04:52:01.132Z,73.00
2022-09-10T04:53:00.162Z,91.00
2022-09-10T04:54:00.123Z,91.00
2022-09-10T04:55:00.092Z,93.00
2022-09-10T04:56:00.083Z,112.00
2022-09-10T04:57:00.135Z,115.00
2022-09-10T04:58:00.053Z,127.00
2022-09-10T04:59:00.046Z,143.00
2022-09-10T05:00:00.024Z,161.00
2022-09-10T05:01:00.085Z,188.00
2022-09-10T05:02:00.020Z,200.00
2022-09-10T05:03:00.034Z,190.00
2022-09-10T05:03:59.975Z,193.00
2022-09-10T05:04:59.970Z,187.00
2022-09-10T05:05:59.949Z,198.00
2022-09-10T05:06:59.946Z,201.00
2022-09-10T05:07:59.928Z,226.00
2022-09-10T05:08:59.958Z,232.00
2022-09-10T05:09:59.897Z,259.00
2022-09-10T05:10:59.888Z,296.00
2022-09-10T05:11:59.878Z,340.00
2022-09-10T05:12:59.869Z,377.00
2022-09-10T05:13:59.850Z,385.00
2022-09-10T05:14:59.872Z,366.00
2022-09-10T05:15:59.834Z,345.00
2022-09-10T05:16:59.810Z,358.00
2022-09-10T05:17:59.801Z,392.00
2022-09-10T05:18:59.792Z,423.00
2022-09-10T05:19:59.772Z,453.00
2022-09-10T05:20:59.802Z,457.00
2022-09-10T05:21:59.751Z,469.00
2022-09-10T05:22:59.736Z,502.00
2022-09-10T05:23:59.722Z,520.00
2022-09-10T05:24:59.713Z,508.00
2022-09-10T05:25:59.696Z,500.00
2022-09-10T05:26:59.704Z,537.00
2022-09-10T05:27:59.675Z,582.00
2022-09-10T05:28:59.669Z,628.00
2022-09-10T05:29:59.644Z,649.00
2022-09-10T05:30:59.636Z,658.00
2022-09-10T05:31:59.615Z,690.00
2022-09-10T05:32:59.627Z,718.00
2022-09-10T05:33:59.598Z,747.00
2022-09-10T05:34:59.588Z,794.00
2022-09-10T05:35:59.566Z,814.00
2022-09-10T05:36:59.556Z,850.00
2022-09-10T05:37:59.554Z,881.00
2022-09-10T05:38:59.559Z,939.00
2022-09-10T05:39:59.566Z,1005.00
2022-09-10T05:40:59.508Z,983.00
2022-09-10T05:41:59.489Z,935.00
2022-09-10T05:42:59.485Z,922.00
2022-09-10T05:43:59.469Z,983.00
2022-09-10T05:44:59.572Z,1025.00
2022-09-10T05:45:59.469Z,1043.00
2022-09-10T05:46:59.430Z,1117.00
2022-09-10T05:47:59.420Z,1188.00
2022-09-10T05:48:59.414Z,1236.00
2022-09-10T05:49:59.390Z,1321.00
2022-09-10T05:50:59.409Z,1428.00
2022-09-10T05:51:59.363Z,1505.00
2022-09-10T05:52:59.352Z,1574.00
2022-09-10T05:53:59.355Z,1586.00
2022-09-10T05:54:59.334Z,1654.00
2022-09-10T05:55:59.426Z,1779.00
2022-09-10T05:56:59.336Z,1849.00
2022-09-10T05:57:59.285Z,1882.00
2022-09-10T05:58:59.274Z,1862.00
2022-09-10T05:59:59.264Z,1922.00
2022-09-10T06:00:59.245Z,1941.00
2022-09-10T06:01:59.306Z,1958.00
2022-09-10T06:02:59.362Z,2037.00
2022-09-10T06:03:59.207Z,2085.00
2022-09-10T06:04:59.207Z,2027.00
2022-09-10T06:05:59.189Z,1972.00
2022-09-10T06:06:59.176Z,2008.00
2022-09-10T06:07:59.162Z,2041.00
2022-09-10T06:08:59.268Z,2125.00
2022-09-10T06:09:59.131Z,2147.00
2022-09-10T06:10:59.127Z,2123.00
2022-09-10T06:11:59.107Z,2161.00
2022-09-10T06:12:59.091Z,2178.00
2022-09-10T06:13:59.080Z,2151.00
2022-09-10T06:14:59.099Z,2220.00
2022-09-10T06:15:59.052Z,2448.00
2022-09-10T06:16:59.050Z,2705.00
2022-09-10T06:17:59.032Z,3001.00
2022-09-10T06:18:59.508Z,3314.00
2022-09-10T06:19:59.017Z,3549.00
2022-09-10T06:20:59.027Z,3665.00
2022-09-10T06:21:58.985Z,3721.00
2022-09-10T06:22:58.963Z,3700.00
2022-09-10T06:23:58.958Z,3627.00
2022-09-10T06:24:58.945Z,3503.00
2022-09-10T06:25:58.927Z,3354.00
2022-09-10T06:26:58.955Z,3174.00
2022-09-10T06:27:58.905Z,2998.00
2022-09-10T06:28:58.905Z,2834.00
2022-09-10T06:29:58.876Z,2746.00
2022-09-10T06:30:58.889Z,2732.00
2022-09-10T06:31:58.847Z,2769.00
2022-09-10T06:32:58.958Z,2826.00
2022-09-10T06:33:58.827Z,2868.00
2022-09-10T06:34:58.818Z,2871.00
2022-09-10T06:35:58.810Z,2870.00
2022-09-10T06:36:58.788Z,2811.00
2022-09-10T06:37:58.771Z,2801.00
2022-09-10T06:38:58.788Z,2773.00
2022-09-10T06:39:58.773Z,3080.00
2022-09-10T06:40:58.742Z,3393.00
2022-09-10T06:41:58.720Z,3636.00
2022-09-10T06:42:58.711Z,3893.00
2022-09-10T06:43:58.703Z,4023.00
2022-09-10T06:44:58.725Z,4215.00
2022-09-10T06:45:58.719Z,4458.00
2022-09-10T06:48:37.573Z,4624.00
2022-09-10T06:48:59.689Z,5039.00
2022-09-10T06:49:58.624Z,5496.00
2022-09-10T06:50:58.632Z,5791.00
2022-09-10T06:51:58.593Z,5989.00
2022-09-10T06:52:58.585Z,6143.00
2022-09-10T06:53:58.565Z,6531.00
2022-09-10T06:54:58.557Z,6826.00
2022-09-10T06:55:58.545Z,7001.00
2022-09-10T06:56:58.575Z,7127.00
2022-09-10T06:57:58.516Z,7093.00
2022-09-10T06:59:02.138Z,7038.00
2022-09-10T06:59:58.497Z,6854.00
2022-09-10T07:00:58.539Z,6974.00
2022-09-10T07:01:58.522Z,6976.00
2022-09-10T07:02:58.478Z,6898.00
2022-09-10T07:03:58.453Z,6400.00
2022-09-10T07:04:58.429Z,5762.00
2022-09-10T07:05:58.417Z,5118.00
2022-09-10T07:06:58.401Z,4716.00
2022-09-10T07:07:58.394Z,4647.00
2022-09-10T07:08:58.410Z,4657.00
2022-09-10T07:09:58.369Z,4751.00
2022-09-10T07:10:58.352Z,4888.00
2022-09-10T07:11:58.340Z,4940.00
2022-09-10T07:12:58.333Z,4829.00
2022-09-10T07:13:58.312Z,4684.00
2022-09-10T07:14:58.333Z,4549.00
2022-09-10T07:15:58.339Z,4560.00
2022-09-10T07:16:58.274Z,4854.00
2022-09-10T07:17:58.265Z,5202.00
2022-09-10T07:18:58.254Z,5419.00
2022-09-10T07:19:58.238Z,5860.00
2022-09-10T07:20:58.265Z,6232.00
2022-09-10T07:21:58.215Z,6576.00
2022-09-10T07:22:58.205Z,6696.00
2022-09-10T07:23:58.187Z,6878.00
2022-09-10T07:24:58.176Z,6913.00
2022-09-10T07:25:58.168Z,7190.00
2022-09-10T07:26:58.267Z,7056.00
2022-09-10T07:27:58.137Z,7370.00
2022-09-10T07:28:58.138Z,7581.00
2022-09-10T07:29:58.112Z,8060.00
2022-09-10T07:30:58.157Z,8306.00
2022-09-10T07:31:58.089Z,8626.00
2022-09-10T07:32:58.099Z,8996.00
2022-09-10T07:33:58.062Z,9014.00
2022-09-10T07:34:58.062Z,9221.00
2022-09-10T07:35:58.047Z,9411.00
2022-09-10T07:36:58.022Z,9512.00
2022-09-10T07:37:58.013Z,9551.00
2022-09-10T07:38:58.127Z,9714.00
2022-09-10T07:39:58.049Z,9726.00
2022-09-10T07:40:57.973Z,9594.00
2022-09-10T07:41:57.963Z,9692.00
2022-09-10T07:42:57.954Z,9907.00
2022-09-10T07:43:57.946Z,10092.00
2022-09-10T07:44:57.955Z,10176.00
2022-09-10T07:46:02.232Z,10391.00
2022-09-10T07:46:58.905Z,10467.00
2022-09-10T07:47:57.885Z,10421.00
2022-09-10T07:48:57.867Z,10338.00
2022-09-10T07:49:57.858Z,10310.00
2022-09-10T07:50:57.878Z,10278.00
2022-09-10T07:51:59.985Z,10311.00
2022-09-10T07:52:57.818Z,10384.00
2022-09-10T07:53:57.809Z,10454.00
2022-09-10T07:54:57.798Z,10554.00
2022-09-10T07:55:57.782Z,10622.00
2022-09-10T07:56:57.799Z,10607.00
2022-09-10T07:58:00.094Z,10552.00
2022-09-10T07:58:57.739Z,10402.00
2022-09-10T07:59:57.730Z,10342.00
2022-09-10T08:00:57.723Z,10199.00
2022-09-10T08:01:57.765Z,9988.00
2022-09-10T08:02:57.722Z,10010.00
2022-09-10T08:03:57.691Z,9940.00
2022-09-10T08:04:57.672Z,10063.00
2022-09-10T08:05:57.664Z,10336.00
2022-09-10T08:06:57.643Z,10448.00
2022-09-10T08:07:57.634Z,10470.00
2022-09-10T08:08:57.644Z,10318.00
2022-09-10T08:09:57.614Z,10072.00
2022-09-10T08:10:57.602Z,9562.00
2022-09-10T08:11:57.587Z,9155.00
2022-09-10T08:12:57.569Z,8463.00
2022-09-10T08:13:57.565Z,7963.00
2022-09-10T08:14:57.567Z,7843.00
2022-09-10T08:15:57.546Z,7364.00
2022-09-10T08:16:57.518Z,6881.00
2022-09-10T08:17:57.511Z,6346.00
2022-09-10T08:18:57.488Z,5659.00
2022-09-10T08:19:57.479Z,5159.00
2022-09-10T08:20:57.509Z,4857.00
2022-09-10T08:21:57.461Z,4677.00
2022-09-10T08:22:57.439Z,4580.00
2022-09-10T08:23:57.430Z,4271.00
2022-09-10T08:24:57.419Z,4235.00
2022-09-10T08:25:57.401Z,3954.00
2022-09-10T08:26:57.421Z,3772.00
2022-09-10T08:27:57.382Z,3834.00
2022-09-10T08:28:57.372Z,4056.00
2022-09-10T08:29:57.353Z,4343.00
2022-09-10T08:30:57.371Z,4915.00
2022-09-10T08:31:57.334Z,5751.00
2022-09-10T08:32:57.362Z,6733.00
2022-09-10T08:33:57.309Z,7451.00
2022-09-10T08:34:57.298Z,8099.00
2022-09-10T08:35:57.275Z,8193.00
2022-09-10T08:36:57.269Z,8443.00
2022-09-10T08:37:57.257Z,8578.00
2022-09-10T08:39:02.161Z,8293.00
2022-09-10T08:39:58.272Z,7532.00
2022-09-10T08:40:57.207Z,7250.00
2022-09-10T08:41:57.205Z,7493.00
2022-09-10T08:42:57.191Z,7642.00
2022-09-10T08:43:57.179Z,7468.00
2022-09-10T08:44:57.296Z,7477.00
2022-09-10T08:45:57.174Z,7900.00
2022-09-10T08:46:57.150Z,8603.00
2022-09-10T08:47:57.130Z,8831.00
2022-09-10T08:48:57.112Z,9374.00
2022-09-10T08:49:57.110Z,10459.00
2022-09-10T08:50:57.121Z,11366.00
2022-09-10T08:51:57.082Z,12227.00
2022-09-10T08:52:57.063Z,12563.00
2022-09-10T08:53:57.053Z,12974.00
2022-09-10T08:54:57.032Z,13174.00
2022-09-10T08:55:57.023Z,13192.00
2022-09-10T08:56:57.052Z,13008.00
2022-09-10T08:57:57.004Z,12924.00
2022-09-10T08:58:56.985Z,13005.00
2022-09-10T08:59:56.986Z,12724.00
2022-09-10T09:00:56.965Z,12774.00
2022-09-10T09:01:56.991Z,12784.00
2022-09-10T09:02:56.980Z,12910.00
2022-09-10T09:03:56.929Z,12995.00
2022-09-10T09:04:56.918Z,12914.00
2022-09-10T09:05:56.898Z,12711.00
2022-09-10T09:06:56.882Z,12693.00
2022-09-10T09:07:56.877Z,12828.00
2022-09-10T09:08:56.878Z,12713.00
2022-09-10T09:09:56.850Z,11733.00
2022-09-10T09:10:56.839Z,10557.00
2022-09-10T09:11:56.821Z,9216.00
2022-09-10T09:12:56.811Z,7670.00
2022-09-10T09:13:56.801Z,6476.00
2022-09-10T09:14:56.805Z,6146.00
2022-09-10T09:15:56.819Z,6094.00
2022-09-10T09:16:56.761Z,6591.00
2022-09-10T09:17:56.751Z,7786.00
2022-09-10T09:18:56.732Z,9011.00
2022-09-10T09:19:56.729Z,10000.00
2022-09-10T09:20:56.782Z,11036.00
2022-09-10T09:21:56.696Z,12205.00
2022-09-10T09:22:56.684Z,13120.00
2022-09-10T09:24:12.591Z,13867.00
2022-09-10T09:24:57.662Z,14278.00
2022-09-10T09:25:56.648Z,14196.00
2022-09-10T09:26:56.758Z,14076.00
2022-09-10T09:27:56.617Z,14320.00
2022-09-10T09:28:56.608Z,15009.00
2022-09-10T09:29:56.597Z,15974.00
2022-09-10T09:30:56.681Z,16645.00
2022-09-10T09:31:56.569Z,16437.00
2022-09-10T09:32:56.579Z,16381.00
2022-09-10T09:33:56.548Z,15260.00
2022-09-10T09:34:56.537Z,13994.00
2022-09-10T09:35:56.520Z,12681.00
2022-09-10T09:36:56.501Z,12123.00
2022-09-10T09:37:56.492Z,12808.00
2022-09-10T09:38:56.503Z,13957.00
2022-09-10T09:39:56.522Z,15107.00
2022-09-10T09:40:56.452Z,16300.00
2022-09-10T09:41:56.443Z,17110.00
2022-09-10T09:42:56.432Z,17298.00
2022-09-10T09:43:56.414Z,16913.00
2022-09-10T09:44:57.320Z,15726.00
2022-09-10T09:45:56.589Z,14689.00
2022-09-10T09:46:56.375Z,14091.00
2022-09-10T09:47:56.377Z,14450.00
2022-09-10T09:48:56.356Z,15153.00
2022-09-10T09:49:56.347Z,15548.00
2022-09-10T09:50:56.358Z,15820.00
2022-09-10T09:51:56.317Z,15683.00
2022-09-10T09:52:56.319Z,15419.00
2022-09-10T09:54:18.436Z,15074.00
2022-09-10T09:55:13.674Z,14852.00
2022-09-10T09:55:57.301Z,14829.00
2022-09-10T09:56:56.254Z,14738.00
2022-09-10T09:57:56.241Z,14692.00
2022-09-10T09:58:56.234Z,14779.00
2022-09-10T09:59:56.222Z,14764.00
2022-09-10T10:00:56.204Z,14912.00
2022-09-10T10:01:56.380Z,15095.00
2022-09-10T10:02:56.183Z,15253.00
2022-09-10T10:03:56.174Z,15264.00
2022-09-10T10:04:56.155Z,15015.00
2022-09-10T10:05:56.155Z,14832.00
2022-09-10T10:06:56.126Z,14533.00
2022-09-10T10:07:56.235Z,13960.00
2022-09-10T10:08:56.107Z,13488.00
2022-09-10T10:09:56.096Z,13202.00
2022-09-10T10:10:56.076Z,13153.00
2022-09-10T10:11:56.069Z,13370.00
2022-09-10T10:12:56.056Z,13813.00
2022-09-10T10:13:56.068Z,14311.00
2022-09-10T10:14:56.029Z,14817.00
2022-09-10T10:15:56.051Z,15282.00
2022-09-10T10:17:00.384Z,15650.00
2022-09-10T10:17:55.999Z,15907.00
2022-09-10T10:18:55.979Z,16157.00
2022-09-10T10:19:56.000Z,16252.00
2022-09-10T10:20:55.951Z,16249.00
2022-09-10T10:21:55.943Z,15925.00
2022-09-10T10:22:55.939Z,15829.00
2022-09-10T10:23:55.922Z,15755.00
2022-09-10T10:24:55.919Z,15622.00
2022-09-10T10:25:56.021Z,15365.00
2022-09-10T10:26:55.881Z,15038.00
2022-09-10T10:27:55.872Z,14863.00
2022-09-10T10:28:55.856Z,14503.00
2022-09-10T10:29:55.845Z,14150.00
2022-09-10T10:30:55.880Z,13833.00
2022-09-10T10:31:55.845Z,13499.00
2022-09-10T10:32:55.814Z,13118.00
2022-09-10T10:33:55.801Z,12748.00
2022-09-10T10:34:55.777Z,12362.00
2022-09-10T10:35:55.768Z,12025.00
2022-09-10T10:36:55.758Z,11849.00
2022-09-10T10:37:55.769Z,11805.00
2022-09-10T10:38:55.728Z,11736.00
2022-09-10T10:39:55.773Z,11720.00
2022-09-10T10:40:55.711Z,11858.00
2022-09-10T10:41:55.701Z,12032.00
2022-09-10T10:42:55.682Z,12237.00
2022-09-10T10:43:55.691Z,12432.00
2022-09-10T10:44:55.651Z,12621.00
2022-09-10T10:45:55.665Z,12862.00
2022-09-10T10:46:55.631Z,12915.00
2022-09-10T10:47:55.614Z,12926.00
2022-09-10T10:48:57.792Z,12749.00
2022-09-10T10:49:55.624Z,12612.00
2022-09-10T10:50:55.574Z,12468.00
2022-09-10T10:51:55.595Z,12338.00
2022-09-10T10:52:55.560Z,12195.00
2022-09-10T10:53:55.547Z,12037.00
2022-09-10T10:54:55.552Z,11824.00
2022-09-10T10:55:55.637Z,11587.00
2022-09-10T10:56:55.509Z,11289.00
2022-09-10T10:57:55.497Z,10948.00
2022-09-10T10:58:55.488Z,10585.00
2022-09-10T10:59:55.470Z,10297.00
2022-09-10T11:00:55.459Z,10041.00
2022-09-10T11:01:55.555Z,9832.00
2022-09-10T11:02:55.429Z,9658.00
2022-09-10T11:03:55.432Z,9457.00
2022-09-10T11:04:55.400Z,9264.00
2022-09-10T11:05:55.400Z,9080.00
2022-09-10T11:06:55.390Z,8843.00
2022-09-10T11:07:55.483Z,8705.00
2022-09-10T11:08:55.352Z,8576.00
2022-09-10T11:09:55.343Z,8438.00
2022-09-10T11:10:55.331Z,8269.00
2022-09-10T11:11:55.356Z,8108.00
2022-09-10T11:12:55.305Z,7915.00
2022-09-10T11:13:55.315Z,7679.00
2022-09-10T11:14:55.275Z,7403.00
2022-09-10T11:15:55.326Z,7205.00
2022-09-10T11:16:58.494Z,7092.00
2022-09-10T11:17:55.247Z,6962.00
2022-09-10T11:18:55.236Z,6730.00
2022-09-10T11:20:17.159Z,6438.00
2022-09-10T11:20:56.199Z,6289.00
2022-09-10T11:21:55.207Z,6315.00
2022-09-10T11:22:55.179Z,6325.00
2022-09-10T11:23:55.171Z,6233.00
2022-09-10T11:24:55.150Z,6066.00
2022-09-10T11:25:55.173Z,5972.00
2022-09-10T11:26:55.131Z,6087.00
2022-09-10T11:27:55.111Z,6329.00
2022-09-10T11:28:55.108Z,6623.00
2022-09-10T11:29:55.092Z,6578.00
2022-09-10T11:30:55.116Z,6328.00
2022-09-10T11:31:55.174Z,5973.00
2022-09-10T11:32:55.053Z,5609.00
2022-09-10T11:33:55.043Z,5331.00
2022-09-10T11:34:55.024Z,5156.00
2022-09-10T11:35:55.015Z,5056.00
2022-09-10T11:36:54.995Z,5070.00
2022-09-10T11:37:55.026Z,5024.00
2022-09-10T11:38:54.975Z,4942.00
2022-09-10T11:39:55.007Z,4916.00
2022-09-10T11:40:54.956Z,5168.00
2022-09-10T11:41:54.937Z,5449.00
2022-09-10T11:42:54.927Z,5702.00
2022-09-10T11:43:54.947Z,5962.00
2022-09-10T11:44:54.897Z,6183.00
2022-09-10T11:45:54.934Z,6275.00
2022-09-10T11:46:54.869Z,6299.00
2022-09-10T11:47:54.858Z,6324.00
2022-09-10T11:48:54.850Z,6389.00
2022-09-10T11:49:54.862Z,6423.00
2022-09-10T11:50:54.821Z,6347.00
2022-09-10T11:51:54.812Z,6276.00
2022-09-10T11:52:54.801Z,6231.00
2022-09-10T11:53:54.810Z,6238.00
2022-09-10T11:54:54.772Z,6260.00
2022-09-10T11:55:54.792Z,6328.00
2022-09-10T11:56:54.743Z,6423.00
2022-09-10T11:57:54.734Z,6571.00
2022-09-10T11:58:54.726Z,6767.00
2022-09-10T11:59:54.712Z,7019.00
2022-09-10T12:00:54.710Z,7278.00
2022-09-10T12:01:54.760Z,7611.00
2022-09-10T12:02:54.680Z,7895.00
2022-09-10T12:03:54.707Z,8203.00
2022-09-10T12:04:54.653Z,8473.00
2022-09-10T12:05:54.636Z,8742.00
2022-09-10T12:06:54.626Z,9007.00
2022-09-10T12:07:54.638Z,9273.00
2022-09-10T12:08:54.598Z,9462.00
2022-09-10T12:09:54.589Z,9647.00
2022-09-10T12:10:54.600Z,9904.00
2022-09-10T12:11:54.559Z,10196.00
2022-09-10T12:12:54.549Z,10562.00
2022-09-10T12:13:54.570Z,10937.00
2022-09-10T12:14:54.520Z,11277.00
2022-09-10T12:15:54.545Z,11575.00
2022-09-10T12:16:54.491Z,11866.00
2022-09-10T12:17:54.490Z,12140.00
2022-09-10T12:18:54.472Z,12348.00
2022-09-10T12:19:54.492Z,12496.00
2022-09-10T12:20:54.443Z,12618.00
2022-09-10T12:21:54.434Z,12690.00
2022-09-10T12:22:54.421Z,12779.00
2022-09-10T12:23:54.405Z,12877.00
2022-09-10T12:24:54.395Z,12917.00
2022-09-10T12:25:54.495Z,12914.00
2022-09-10T12:26:54.365Z,12855.00
2022-09-10T12:27:54.355Z,12756.00
2022-09-10T12:28:54.346Z,12604.00